sensor_id;sensor_type;location;lat;lon;timestamp;P1;durP1;ratioP1;P2;durP2;ratioP2
40501;SDS011;29631;49.168;9.848;2022-09-03T00:00:09;2.45;;;1.30;;
40501;SDS011;29631;49.168;9.848;2022-09-03T00:02:42;1.17;;;1.00;;
40501;SDS011;29631;49.168;9.848;2022-09-03T00:05:16;1.58;;;0.90;;
40501;SDS011;29631;49.168;9.848;2022-09-03T00:11:10;1.33;;;1.23;;
40501;SDS011;29631;49.168;9.848;2022-09-03T00:19:19;1.55;;;1.23;;
40501;SDS011;29631;49.168;9.848;2022-09-03T00:21:54;1.10;;;1.00;;
40501;SDS011;29631;49.168;9.848;2022-09-03T00:24:35;1.55;;;1.08;;
40501;SDS011;29631;49.168;9.848;2022-09-03T00:27:08;2.58;;;1.38;;
40501;SDS011;29631;49.168;9.848;2022-09-03T00:29:51;1.10;;;1.00;;
40501;SDS011;29631;49.168;9.848;2022-09-03T00:32:38;2.25;;;1.10;;
40501;SDS011;29631;49.168;9.848;2022-09-03T00:35:09;1.08;;;1.05;;
40501;SDS011;29631;49.168;9.848;2022-09-03T00:37:59;1.10;;;1.10;;
40501;SDS011;29631;49.168;9.848;2022-09-03T00:52:06;1.95;;;1.30;;
40501;SDS011;29631;49.168;9.848;2022-09-03T01:04:46;1.00;;;1.00;;
40501;SDS011;29631;49.168;9.848;2022-09-03T01:14:02;1.27;;;1.05;;
40501;SDS011;29631;49.168;9.848;2022-09-03T01:19:51;1.20;;;1.20;;
40501;SDS011;29631;49.168;9.848;2022-09-03T01:25:28;1.10;;;1.10;;
40501;SDS011;29631;49.168;9.848;2022-09-03T01:28:34;1.08;;;1.08;;
40501;SDS011;29631;49.168;9.848;2022-09-03T01:31:37;1.42;;;1.33;;
40501;SDS011;29631;49.168;9.848;2022-09-03T01:40:00;1.55;;;1.10;;
40501;SDS011;29631;49.168;9.848;2022-09-03T01:43:19;1.20;;;1.10;;
40501;SDS011;29631;49.168;9.848;2022-09-03T01:46:12;1.20;;;1.20;;
40501;SDS011;29631;49.168;9.848;2022-09-03T01:51:37;1.20;;;1.20;;
40501;SDS011;29631;49.168;9.848;2022-09-03T01:54:09;1.13;;;1.13;;
40501;SDS011;29631;49.168;9.848;2022-09-03T01:59:34;1.80;;;1.50;;
40501;SDS011;29631;49.168;9.848;2022-09-03T02:04:58;1.30;;;1.30;;
40501;SDS011;29631;49.168;9.848;2022-09-03T02:07:31;1.20;;;1.10;;
40501;SDS011;29631;49.168;9.848;2022-09-03T02:10:02;1.30;;;1.30;;
40501;SDS011;29631;49.168;9.848;2022-09-03T02:12:32;1.30;;;1.30;;
40501;SDS011;29631;49.168;9.848;2022-09-03T02:15:03;1.10;;;1.10;;
40501;SDS011;29631;49.168;9.848;2022-09-03T02:17:36;1.30;;;1.30;;
40501;SDS011;29631;49.168;9.848;2022-09-03T02:20:03;1.65;;;1.55;;
40501;SDS011;29631;49.168;9.848;2022-09-03T02:22:35;1.30;;;1.30;;
40501;SDS011;29631;49.168;9.848;2022-09-03T02:25:05;1.30;;;1.30;;
40501;SDS011;29631;49.168;9.848;2022-09-03T02:27:32;1.35;;;1.15;;
40501;SDS011;29631;49.168;9.848;2022-09-03T02:29:58;2.22;;;1.45;;
40501;SDS011;29631;49.168;9.848;2022-09-03T02:32:24;1.35;;;1.30;;
40501;SDS011;29631;49.168;9.848;2022-09-03T02:34:50;1.20;;;1.20;;
40501;SDS011;29631;49.168;9.848;2022-09-03T02:37:17;1.33;;;1.33;;
40501;SDS011;29631;49.168;9.848;2022-09-03T02:39:43;1.35;;;1.25;;
40501;SDS011;29631;49.168;9.848;2022-09-03T02:42:10;1.42;;;1.40;;
40501;SDS011;29631;49.168;9.848;2022-09-03T02:44:40;0.80;;;0.80;;
40501;SDS011;29631;49.168;9.848;2022-09-03T02:47:12;1.50;;;1.40;;
40501;SDS011;29631;49.168;9.848;2022-09-03T02:49:39;1.23;;;1.23;;
40501;SDS011;29631;49.168;9.848;2022-09-03T02:52:06;1.17;;;1.17;;
40501;SDS011;29631;49.168;9.848;2022-09-03T02:54:35;1.20;;;1.20;;
40501;SDS011;29631;49.168;9.848;2022-09-03T02:57:09;1.40;;;1.30;;
40501;SDS011;29631;49.168;9.848;2022-09-03T02:59:39;1.40;;;1.30;;
40501;SDS011;29631;49.168;9.848;2022-09-03T03:02:08;1.48;;;1.45;;
40501;SDS011;29631;49.168;9.848;2022-09-03T03:04:35;1.10;;;1.10;;
40501;SDS011;29631;49.168;9.848;2022-09-03T03:07:02;1.60;;;1.50;;
40501;SDS011;29631;49.168;9.848;2022-09-03T03:09:28;1.38;;;1.38;;
40501;SDS011;29631;49.168;9.848;2022-09-03T03:11:54;1.20;;;1.20;;
40501;SDS011;29631;49.168;9.848;2022-09-03T03:14:19;1.60;;;1.20;;
40501;SDS011;29631;49.168;9.848;2022-09-03T03:16:46;1.65;;;1.08;;
40501;SDS011;29631;49.168;9.848;2022-09-03T03:19:13;1.48;;;1.38;;
40501;SDS011;29631;49.168;9.848;2022-09-03T03:21:39;1.27;;;1.17;;
40501;SDS011;29631;49.168;9.848;2022-09-03T03:24:05;1.17;;;1.17;;
40501;SDS011;29631;49.168;9.848;2022-09-03T03:26:31;1.25;;;1.25;;
40501;SDS011;29631;49.168;9.848;2022-09-03T03:28:57;1.63;;;1.52;;
40501;SDS011;29631;49.168;9.848;2022-09-03T03:31:30;1.40;;;1.40;;
40501;SDS011;29631;49.168;9.848;2022-09-03T03:33:57;1.60;;;1.50;;
40501;SDS011;29631;49.168;9.848;2022-09-03T03:36:27;1.20;;;1.20;;
40501;SDS011;29631;49.168;9.848;2022-09-03T03:38:56;1.30;;;1.30;;
40501;SDS011;29631;49.168;9.848;2022-09-03T03:41:31;1.50;;;1.40;;
40501;SDS011;29631;49.168;9.848;2022-09-03T03:43:59;3.95;;;1.40;;
40501;SDS011;29631;49.168;9.848;2022-09-03T03:46:36;1.20;;;1.20;;
40501;SDS011;29631;49.168;9.848;2022-09-03T03:49:04;1.17;;;1.17;;
40501;SDS011;29631;49.168;9.848;2022-09-03T03:51:32;1.10;;;1.10;;
40501;SDS011;29631;49.168;9.848;2022-09-03T03:53:59;1.27;;;1.27;;
40501;SDS011;29631;49.168;9.848;2022-09-03T03:56:26;1.58;;;1.40;;
40501;SDS011;29631;49.168;9.848;2022-09-03T03:58:52;1.40;;;1.40;;
40501;SDS011;29631;49.168;9.848;2022-09-03T04:01:20;1.40;;;1.40;;
40501;SDS011;29631;49.168;9.848;2022-09-03T04:03:48;1.40;;;1.40;;
40501;SDS011;29631;49.168;9.848;2022-09-03T04:06:15;1.58;;;1.35;;
40501;SDS011;29631;49.168;9.848;2022-09-03T04:08:44;1.67;;;1.45;;
40501;SDS011;29631;49.168;9.848;2022-09-03T04:11:12;1.20;;;1.20;;
40501;SDS011;29631;49.168;9.848;2022-09-03T04:13:44;0.98;;;0.98;;
40501;SDS011;29631;49.168;9.848;2022-09-03T04:16:12;1.33;;;1.25;;
40501;SDS011;29631;49.168;9.848;2022-09-03T04:18:44;1.40;;;1.30;;
40501;SDS011;29631;49.168;9.848;2022-09-03T04:21:11;1.35;;;1.35;;
40501;SDS011;29631;49.168;9.848;2022-09-03T04:23:43;1.42;;;1.35;;
40501;SDS011;29631;49.168;9.848;2022-09-03T04:26:12;1.25;;;1.13;;
40501;SDS011;29631;49.168;9.848;2022-09-03T04:28:40;1.40;;;1.30;;
40501;SDS011;29631;49.168;9.848;2022-09-03T04:31:08;1.55;;;1.45;;
40501;SDS011;29631;49.168;9.848;2022-09-03T04:33:36;1.40;;;1.27;;
40501;SDS011;29631;49.168;9.848;2022-09-03T04:36:03;1.50;;;1.40;;
40501;SDS011;29631;49.168;9.848;2022-09-03T04:38:35;1.70;;;1.60;;
40501;SDS011;29631;49.168;9.848;2022-09-03T04:41:04;1.00;;;1.00;;
40501;SDS011;29631;49.168;9.848;2022-09-03T04:43:31;2.28;;;1.30;;
40501;SDS011;29631;49.168;9.848;2022-09-03T04:45:58;3.20;;;1.30;;
40501;SDS011;29631;49.168;9.848;2022-09-03T04:48:26;1.30;;;1.30;;
40501;SDS011;29631;49.168;9.848;2022-09-03T04:51:00;1.42;;;1.42;;
40501;SDS011;29631;49.168;9.848;2022-09-03T04:53:40;1.50;;;1.40;;
40501;SDS011;29631;49.168;9.848;2022-09-03T04:56:15;1.55;;;1.35;;
40501;SDS011;29631;49.168;9.848;2022-09-03T04:58:44;1.48;;;1.48;;
40501;SDS011;29631;49.168;9.848;2022-09-03T05:01:15;1.65;;;1.40;;
40501;SDS011;29631;49.168;9.848;2022-09-03T05:03:43;1.50;;;1.40;;
40501;SDS011;29631;49.168;9.848;2022-09-03T05:06:10;1.50;;;1.50;;
40501;SDS011;29631;49.168;9.848;2022-09-03T05:08:36;1.80;;;1.70;;
40501;SDS011;29631;49.168;9.848;2022-09-03T05:11:04;1.35;;;1.30;;
40501;SDS011;29631;49.168;9.848;2022-09-03T05:13:32;1.50;;;1.40;;
40501;SDS011;29631;49.168;9.848;2022-09-03T05:15:59;1.90;;;1.40;;
40501;SDS011;29631;49.168;9.848;2022-09-03T05:18:28;1.80;;;1.10;;
40501;SDS011;29631;49.168;9.848;2022-09-03T05:21:00;1.33;;;1.33;;
40501;SDS011;29631;49.168;9.848;2022-09-03T05:23:38;1.92;;;1.20;;
40501;SDS011;29631;49.168;9.848;2022-09-03T05:26:08;1.10;;;1.10;;
40501;SDS011;29631;49.168;9.848;2022-09-03T05:28:37;1.80;;;1.70;;
40501;SDS011;29631;49.168;9.848;2022-09-03T05:31:06;1.70;;;1.60;;
40501;SDS011;29631;49.168;9.848;2022-09-03T05:33:39;1.33;;;1.30;;
40501;SDS011;29631;49.168;9.848;2022-09-03T05:36:08;1.83;;;1.38;;
40501;SDS011;29631;49.168;9.848;2022-09-03T05:38:37;1.30;;;1.30;;
40501;SDS011;29631;49.168;9.848;2022-09-03T05:41:04;1.40;;;1.30;;
40501;SDS011;29631;49.168;9.848;2022-09-03T05:43:33;3.92;;;1.50;;
40501;SDS011;29631;49.168;9.848;2022-09-03T05:46:03;1.95;;;1.50;;
40501;SDS011;29631;49.168;9.848;2022-09-03T05:48:33;1.40;;;1.40;;
40501;SDS011;29631;49.168;9.848;2022-09-03T05:51:11;1.75;;;1.65;;
40501;SDS011;29631;49.168;9.848;2022-09-03T05:53:43;1.73;;;1.40;;
40501;SDS011;29631;49.168;9.848;2022-09-03T05:56:12;1.27;;;1.27;;
40501;SDS011;29631;49.168;9.848;2022-09-03T05:58:44;1.33;;;1.33;;
40501;SDS011;29631;49.168;9.848;2022-09-03T06:03:47;2.20;;;1.25;;
40501;SDS011;29631;49.168;9.848;2022-09-03T06:06:19;2.35;;;1.70;;
40501;SDS011;29631;49.168;9.848;2022-09-03T06:08:49;1.40;;;1.33;;
40501;SDS011;29631;49.168;9.848;2022-09-03T06:11:20;2.20;;;1.42;;
40501;SDS011;29631;49.168;9.848;2022-09-03T06:13:50;1.30;;;1.20;;
40501;SDS011;29631;49.168;9.848;2022-09-03T06:16:16;1.55;;;1.45;;
40501;SDS011;29631;49.168;9.848;2022-09-03T06:18:42;1.48;;;1.42;;
40501;SDS011;29631;49.168;9.848;2022-09-03T06:21:08;1.50;;;1.40;;
40501;SDS011;29631;49.168;9.848;2022-09-03T06:23:34;1.17;;;1.17;;
40501;SDS011;29631;49.168;9.848;2022-09-03T06:28:34;1.52;;;1.40;;
40501;SDS011;29631;49.168;9.848;2022-09-03T06:31:03;1.63;;;1.52;;
40501;SDS011;29631;49.168;9.848;2022-09-03T06:33:32;1.50;;;1.40;;
40501;SDS011;29631;49.168;9.848;2022-09-03T06:36:01;1.50;;;1.40;;
40501;SDS011;29631;49.168;9.848;2022-09-03T06:38:30;3.53;;;1.40;;
40501;SDS011;29631;49.168;9.848;2022-09-03T06:41:00;1.38;;;1.35;;
40501;SDS011;29631;49.168;9.848;2022-09-03T06:43:29;1.95;;;1.23;;
40501;SDS011;29631;49.168;9.848;2022-09-03T06:46:01;1.42;;;1.42;;
40501;SDS011;29631;49.168;9.848;2022-09-03T06:48:34;1.60;;;1.50;;
40501;SDS011;29631;49.168;9.848;2022-09-03T06:51:02;1.48;;;1.40;;
40501;SDS011;29631;49.168;9.848;2022-09-03T06:53:35;1.40;;;1.27;;
40501;SDS011;29631;49.168;9.848;2022-09-03T06:56:07;1.77;;;1.77;;
40501;SDS011;29631;49.168;9.848;2022-09-03T06:58:42;1.60;;;1.60;;
40501;SDS011;29631;49.168;9.848;2022-09-03T07:01:12;1.55;;;1.42;;
40501;SDS011;29631;49.168;9.848;2022-09-03T07:03:40;1.40;;;1.40;;
40501;SDS011;29631;49.168;9.848;2022-09-03T07:06:08;3.08;;;1.40;;
40501;SDS011;29631;49.168;9.848;2022-09-03T07:08:40;1.55;;;1.52;;
40501;SDS011;29631;49.168;9.848;2022-09-03T07:11:07;1.60;;;1.40;;
40501;SDS011;29631;49.168;9.848;2022-09-03T07:13:37;1.58;;;1.45;;
40501;SDS011;29631;49.168;9.848;2022-09-03T07:16:19;1.40;;;1.40;;
40501;SDS011;29631;49.168;9.848;2022-09-03T07:18:47;1.83;;;1.80;;
40501;SDS011;29631;49.168;9.848;2022-09-03T07:21:15;1.60;;;1.50;;
40501;SDS011;29631;49.168;9.848;2022-09-03T07:23:44;1.52;;;1.52;;
40501;SDS011;29631;49.168;9.848;2022-09-03T07:26:12;1.52;;;1.42;;
40501;SDS011;29631;49.168;9.848;2022-09-03T07:28:41;1.85;;;1.75;;
40501;SDS011;29631;49.168;9.848;2022-09-03T07:31:11;1.42;;;1.38;;
40501;SDS011;29631;49.168;9.848;2022-09-03T07:33:39;1.63;;;1.60;;
40501;SDS011;29631;49.168;9.848;2022-09-03T07:36:09;1.38;;;1.33;;
40501;SDS011;29631;49.168;9.848;2022-09-03T07:38:39;1.70;;;1.70;;
40501;SDS011;29631;49.168;9.848;2022-09-03T07:41:07;1.75;;;1.65;;
40501;SDS011;29631;49.168;9.848;2022-09-03T07:43:35;1.60;;;1.50;;
40501;SDS011;29631;49.168;9.848;2022-09-03T07:46:16;1.98;;;1.60;;
40501;SDS011;29631;49.168;9.848;2022-09-03T07:48:47;1.45;;;1.45;;
40501;SDS011;29631;49.168;9.848;2022-09-03T07:51:18;1.40;;;1.30;;
40501;SDS011;29631;49.168;9.848;2022-09-03T07:53:46;1.23;;;1.23;;
40501;SDS011;29631;49.168;9.848;2022-09-03T07:56:13;1.75;;;1.50;;
40501;SDS011;29631;49.168;9.848;2022-09-03T07:58:39;2.20;;;1.80;;
40501;SDS011;29631;49.168;9.848;2022-09-03T08:01:27;1.63;;;1.52;;
40501;SDS011;29631;49.168;9.848;2022-09-03T08:03:55;2.13;;;1.80;;
40501;SDS011;29631;49.168;9.848;2022-09-03T08:06:21;1.83;;;1.73;;
40501;SDS011;29631;49.168;9.848;2022-09-03T08:08:58;1.83;;;1.60;;
40501;SDS011;29631;49.168;9.848;2022-09-03T08:11:26;1.73;;;1.65;;
40501;SDS011;29631;49.168;9.848;2022-09-03T08:14:00;2.03;;;1.50;;
40501;SDS011;29631;49.168;9.848;2022-09-03T08:16:40;1.60;;;1.50;;
40501;SDS011;29631;49.168;9.848;2022-09-03T08:19:14;1.70;;;1.60;;
40501;SDS011;29631;49.168;9.848;2022-09-03T08:21:42;1.48;;;1.38;;
40501;SDS011;29631;49.168;9.848;2022-09-03T08:24:08;1.60;;;1.50;;
40501;SDS011;29631;49.168;9.848;2022-09-03T08:26:37;1.50;;;1.40;;
40501;SDS011;29631;49.168;9.848;2022-09-03T08:29:06;1.70;;;1.60;;
40501;SDS011;29631;49.168;9.848;2022-09-03T08:31:33;1.45;;;1.42;;
40501;SDS011;29631;49.168;9.848;2022-09-03T08:34:00;1.73;;;1.73;;
40501;SDS011;29631;49.168;9.848;2022-09-03T08:36:30;1.65;;;1.55;;
40501;SDS011;29631;49.168;9.848;2022-09-03T08:38:58;1.40;;;1.40;;
40501;SDS011;29631;49.168;9.848;2022-09-03T08:49:57;1.45;;;1.30;;
40501;SDS011;29631;49.168;9.848;2022-09-03T08:54:57;2.05;;;1.80;;
40501;SDS011;29631;49.168;9.848;2022-09-03T08:57:50;1.60;;;1.50;;
40501;SDS011;29631;49.168;9.848;2022-09-03T09:06:54;1.98;;;1.88;;
40501;SDS011;29631;49.168;9.848;2022-09-03T09:15:09;2.13;;;1.67;;
40501;SDS011;29631;49.168;9.848;2022-09-03T09:18:27;1.70;;;1.60;;
40501;SDS011;29631;49.168;9.848;2022-09-03T09:21:30;1.45;;;1.45;;
40501;SDS011;29631;49.168;9.848;2022-09-03T09:24:12;1.52;;;1.52;;
40501;SDS011;29631;49.168;9.848;2022-09-03T09:26:48;2.05;;;1.77;;
40501;SDS011;29631;49.168;9.848;2022-09-03T09:29:24;1.90;;;1.80;;
40501;SDS011;29631;49.168;9.848;2022-09-03T09:31:55;1.90;;;1.80;;
40501;SDS011;29631;49.168;9.848;2022-09-03T09:34:21;1.70;;;1.60;;
40501;SDS011;29631;49.168;9.848;2022-09-03T09:36:48;1.70;;;1.60;;
40501;SDS011;29631;49.168;9.848;2022-09-03T09:39:17;1.65;;;1.65;;
40501;SDS011;29631;49.168;9.848;2022-09-03T09:41:53;5.80;;;2.00;;
40501;SDS011;29631;49.168;9.848;2022-09-03T09:44:33;6.07;;;2.13;;
40501;SDS011;29631;49.168;9.848;2022-09-03T09:49:58;1.90;;;1.80;;
40501;SDS011;29631;49.168;9.848;2022-09-03T09:52:27;1.52;;;1.45;;
40501;SDS011;29631;49.168;9.848;2022-09-03T09:55:15;2.47;;;1.83;;
40501;SDS011;29631;49.168;9.848;2022-09-03T09:57:44;2.20;;;1.70;;
40501;SDS011;29631;49.168;9.848;2022-09-03T10:00:14;1.83;;;1.73;;
40501;SDS011;29631;49.168;9.848;2022-09-03T10:02:52;1.50;;;1.50;;
40501;SDS011;29631;49.168;9.848;2022-09-03T10:05:23;5.00;;;1.52;;
40501;SDS011;29631;49.168;9.848;2022-09-03T10:08:02;1.60;;;1.60;;
40501;SDS011;29631;49.168;9.848;2022-09-03T10:10:43;1.50;;;1.50;;
40501;SDS011;29631;49.168;9.848;2022-09-03T10:13:16;1.80;;;1.70;;
40501;SDS011;29631;49.168;9.848;2022-09-03T10:16:07;2.15;;;1.80;;
40501;SDS011;29631;49.168;9.848;2022-09-03T10:21:44;1.60;;;1.60;;
40501;SDS011;29631;49.168;9.848;2022-09-03T10:24:48;1.70;;;1.60;;
40501;SDS011;29631;49.168;9.848;2022-09-03T10:27:22;2.63;;;1.70;;
40501;SDS011;29631;49.168;9.848;2022-09-03T10:29:49;1.80;;;1.70;;
40501;SDS011;29631;49.168;9.848;2022-09-03T10:35:05;1.52;;;1.52;;
40501;SDS011;29631;49.168;9.848;2022-09-03T10:37:46;1.73;;;1.63;;
40501;SDS011;29631;49.168;9.848;2022-09-03T10:40:31;1.80;;;1.70;;
40501;SDS011;29631;49.168;9.848;2022-09-03T10:46:10;1.92;;;1.80;;
40501;SDS011;29631;49.168;9.848;2022-09-03T11:00:52;1.90;;;1.80;;
40501;SDS011;29631;49.168;9.848;2022-09-03T11:03:33;3.47;;;1.67;;
40501;SDS011;29631;49.168;9.848;2022-09-03T11:06:19;1.35;;;1.30;;
40501;SDS011;29631;49.168;9.848;2022-09-03T11:09:04;2.05;;;1.30;;
40501;SDS011;29631;49.168;9.848;2022-09-03T11:11:48;1.73;;;1.63;;
40501;SDS011;29631;49.168;9.848;2022-09-03T11:14:37;2.17;;;1.40;;
40501;SDS011;29631;49.168;9.848;2022-09-03T11:17:12;1.77;;;1.67;;
40501;SDS011;29631;49.168;9.848;2022-09-03T11:22:49;1.77;;;1.40;;
40501;SDS011;29631;49.168;9.848;2022-09-03T11:25:24;1.73;;;1.63;;
40501;SDS011;29631;49.168;9.848;2022-09-03T11:28:04;2.58;;;1.85;;
40501;SDS011;29631;49.168;9.848;2022-09-03T11:33:58;1.90;;;1.80;;
40501;SDS011;29631;49.168;9.848;2022-09-03T11:36:35;1.52;;;1.42;;
40501;SDS011;29631;49.168;9.848;2022-09-03T11:42:19;1.92;;;1.80;;
40501;SDS011;29631;49.168;9.848;2022-09-03T11:45:19;4.00;;;2.10;;
40501;SDS011;29631;49.168;9.848;2022-09-03T11:47:51;2.47;;;1.85;;
40501;SDS011;29631;49.168;9.848;2022-09-03T11:52:53;8.77;;;2.55;;
40501;SDS011;29631;49.168;9.848;2022-09-03T11:55:46;16.85;;;3.22;;
40501;SDS011;29631;49.168;9.848;2022-09-03T11:58:24;12.60;;;2.88;;
40501;SDS011;29631;49.168;9.848;2022-09-03T12:01:00;4.57;;;2.40;;
40501;SDS011;29631;49.168;9.848;2022-09-03T12:15:39;3.58;;;1.63;;
40501;SDS011;29631;49.168;9.848;2022-09-03T12:21:04;4.93;;;2.20;;
40501;SDS011;29631;49.168;9.848;2022-09-03T12:26:16;1.58;;;1.58;;
40501;SDS011;29631;49.168;9.848;2022-09-03T12:28:46;1.88;;;1.77;;
40501;SDS011;29631;49.168;9.848;2022-09-03T12:31:15;1.60;;;1.60;;
40501;SDS011;29631;49.168;9.848;2022-09-03T12:34:09;1.80;;;1.73;;
40501;SDS011;29631;49.168;9.848;2022-09-03T12:36:48;1.42;;;1.42;;
40501;SDS011;29631;49.168;9.848;2022-09-03T12:41:52;1.70;;;1.60;;
40501;SDS011;29631;49.168;9.848;2022-09-03T12:47:14;1.95;;;1.73;;
40501;SDS011;29631;49.168;9.848;2022-09-03T12:49:48;1.55;;;1.55;;
40501;SDS011;29631;49.168;9.848;2022-09-03T12:52:18;1.83;;;1.73;;
40501;SDS011;29631;49.168;9.848;2022-09-03T12:58:30;2.05;;;1.95;;
40501;SDS011;29631;49.168;9.848;2022-09-03T13:03:52;1.83;;;1.83;;
40501;SDS011;29631;49.168;9.848;2022-09-03T13:06:38;1.70;;;1.67;;
40501;SDS011;29631;49.168;9.848;2022-09-03T13:09:28;2.10;;;1.75;;
40501;SDS011;29631;49.168;9.848;2022-09-03T13:11:57;1.90;;;1.70;;
40501;SDS011;29631;49.168;9.848;2022-09-03T13:14:25;1.75;;;1.75;;
40501;SDS011;29631;49.168;9.848;2022-09-03T13:19:43;2.03;;;1.70;;
40501;SDS011;29631;49.168;9.848;2022-09-03T13:28:55;1.80;;;1.70;;
40501;SDS011;29631;49.168;9.848;2022-09-03T13:32:07;1.63;;;1.52;;
40501;SDS011;29631;49.168;9.848;2022-09-03T13:49:21;1.65;;;1.60;;
40501;SDS011;29631;49.168;9.848;2022-09-03T13:52:31;1.50;;;1.50;;
40501;SDS011;29631;49.168;9.848;2022-09-03T13:55:36;1.73;;;1.70;;
40501;SDS011;29631;49.168;9.848;2022-09-03T13:58:20;1.77;;;1.70;;
40501;SDS011;29631;49.168;9.848;2022-09-03T14:04:43;1.83;;;1.73;;
40501;SDS011;29631;49.168;9.848;2022-09-03T14:10:33;1.42;;;1.42;;
40501;SDS011;29631;49.168;9.848;2022-09-03T14:16:47;1.80;;;1.70;;
40501;SDS011;29631;49.168;9.848;2022-09-03T14:24:55;1.70;;;1.60;;
40501;SDS011;29631;49.168;9.848;2022-09-03T14:27:30;1.60;;;1.52;;
40501;SDS011;29631;49.168;9.848;2022-09-03T14:30:02;1.50;;;1.50;;
40501;SDS011;29631;49.168;9.848;2022-09-03T14:44:13;2.38;;;1.65;;
40501;SDS011;29631;49.168;9.848;2022-09-03T14:58:58;1.58;;;1.58;;
40501;SDS011;29631;49.168;9.848;2022-09-03T15:01:40;1.80;;;1.70;;
40501;SDS011;29631;49.168;9.848;2022-09-03T15:04:19;1.88;;;1.83;;
40501;SDS011;29631;49.168;9.848;2022-09-03T15:13:22;1.40;;;1.40;;
40501;SDS011;29631;49.168;9.848;2022-09-03T15:16:03;1.55;;;1.30;;
40501;SDS011;29631;49.168;9.848;2022-09-03T15:21:44;1.50;;;1.50;;
40501;SDS011;29631;49.168;9.848;2022-09-03T15:33:55;2.05;;;1.20;;
40501;SDS011;29631;49.168;9.848;2022-09-03T15:36:42;1.05;;;1.05;;
40501;SDS011;29631;49.168;9.848;2022-09-03T15:39:16;5.72;;;1.30;;
40501;SDS011;29631;49.168;9.848;2022-09-03T15:41:58;1.10;;;1.10;;
40501;SDS011;29631;49.168;9.848;2022-09-03T15:44:34;1.45;;;1.10;;
40501;SDS011;29631;49.168;9.848;2022-09-03T15:47:13;0.95;;;0.95;;
40501;SDS011;29631;49.168;9.848;2022-09-03T15:50:38;0.80;;;0.80;;
40501;SDS011;29631;49.168;9.848;2022-09-03T15:53:32;0.82;;;0.82;;
40501;SDS011;29631;49.168;9.848;2022-09-03T15:58:47;0.80;;;0.80;;
40501;SDS011;29631;49.168;9.848;2022-09-03T16:01:45;0.80;;;0.80;;
40501;SDS011;29631;49.168;9.848;2022-09-03T16:08:12;1.02;;;1.02;;
40501;SDS011;29631;49.168;9.848;2022-09-03T16:11:12;0.93;;;0.90;;
40501;SDS011;29631;49.168;9.848;2022-09-03T16:14:14;1.67;;;1.00;;
40501;SDS011;29631;49.168;9.848;2022-09-03T16:20:14;1.17;;;1.10;;
40501;SDS011;29631;49.168;9.848;2022-09-03T16:25:21;1.00;;;1.00;;
40501;SDS011;29631;49.168;9.848;2022-09-03T16:31:20;1.90;;;1.17;;
40501;SDS011;29631;49.168;9.848;2022-09-03T16:37:45;1.10;;;1.10;;
40501;SDS011;29631;49.168;9.848;2022-09-03T16:43:59;1.75;;;1.00;;
40501;SDS011;29631;49.168;9.848;2022-09-03T16:47:27;1.02;;;1.02;;
40501;SDS011;29631;49.168;9.848;2022-09-03T16:52:20;2.78;;;1.30;;
40501;SDS011;29631;49.168;9.848;2022-09-03T16:55:12;1.10;;;1.10;;
40501;SDS011;29631;49.168;9.848;2022-09-03T17:00:25;1.67;;;1.30;;
40501;SDS011;29631;49.168;9.848;2022-09-03T17:11:51;1.10;;;1.10;;
40501;SDS011;29631;49.168;9.848;2022-09-03T17:14:38;1.02;;;1.02;;
40501;SDS011;29631;49.168;9.848;2022-09-03T17:20:46;1.15;;;1.10;;
40501;SDS011;29631;49.168;9.848;2022-09-03T17:29:16;1.08;;;1.00;;
40501;SDS011;29631;49.168;9.848;2022-09-03T17:35:12;1.10;;;1.10;;
40501;SDS011;29631;49.168;9.848;2022-09-03T17:38:12;1.10;;;1.10;;
40501;SDS011;29631;49.168;9.848;2022-09-03T17:40:56;0.90;;;0.90;;
40501;SDS011;29631;49.168;9.848;2022-09-03T17:43:44;1.30;;;1.30;;
40501;SDS011;29631;49.168;9.848;2022-09-03T17:49:30;1.30;;;1.30;;
40501;SDS011;29631;49.168;9.848;2022-09-03T17:52:18;1.10;;;1.10;;
40501;SDS011;29631;49.168;9.848;2022-09-03T17:54:54;1.42;;;1.33;;
40501;SDS011;29631;49.168;9.848;2022-09-03T17:57:31;1.20;;;1.20;;
40501;SDS011;29631;49.168;9.848;2022-09-03T18:00:11;2.53;;;1.30;;
40501;SDS011;29631;49.168;9.848;2022-09-03T18:06:03;1.13;;;1.13;;
40501;SDS011;29631;49.168;9.848;2022-09-03T18:11:48;1.30;;;1.30;;
40501;SDS011;29631;49.168;9.848;2022-09-03T18:14:20;1.20;;;1.20;;
40501;SDS011;29631;49.168;9.848;2022-09-03T18:17:11;1.38;;;1.30;;
40501;SDS011;29631;49.168;9.848;2022-09-03T18:20:07;1.50;;;1.35;;
40501;SDS011;29631;49.168;9.848;2022-09-03T18:26:02;1.33;;;1.33;;
40501;SDS011;29631;49.168;9.848;2022-09-03T18:31:42;1.30;;;1.30;;
40501;SDS011;29631;49.168;9.848;2022-09-03T18:34:31;1.30;;;1.30;;
40501;SDS011;29631;49.168;9.848;2022-09-03T18:37:20;2.40;;;1.30;;
40501;SDS011;29631;49.168;9.848;2022-09-03T18:40:08;1.30;;;1.30;;
40501;SDS011;29631;49.168;9.848;2022-09-03T18:51:54;1.58;;;1.35;;
40501;SDS011;29631;49.168;9.848;2022-09-03T18:58:45;1.52;;;1.17;;
40501;SDS011;29631;49.168;9.848;2022-09-03T19:01:43;1.30;;;1.30;;
40501;SDS011;29631;49.168;9.848;2022-09-03T19:13:36;1.48;;;1.45;;
40501;SDS011;29631;49.168;9.848;2022-09-03T19:23:01;1.30;;;1.30;;
40501;SDS011;29631;49.168;9.848;2022-09-03T19:25:46;1.80;;;1.70;;
40501;SDS011;29631;49.168;9.848;2022-09-03T19:28:31;1.50;;;1.50;;
40501;SDS011;29631;49.168;9.848;2022-09-03T19:31:35;1.45;;;1.45;;
40501;SDS011;29631;49.168;9.848;2022-09-03T19:34:51;1.40;;;1.40;;
40501;SDS011;29631;49.168;9.848;2022-09-03T19:37:54;2.10;;;2.00;;
40501;SDS011;29631;49.168;9.848;2022-09-03T19:44:18;1.95;;;1.50;;
40501;SDS011;29631;49.168;9.848;2022-09-03T19:47:12;1.50;;;1.50;;
40501;SDS011;29631;49.168;9.848;2022-09-03T19:50:33;1.50;;;1.50;;
40501;SDS011;29631;49.168;9.848;2022-09-03T19:53:24;1.55;;;1.50;;
40501;SDS011;29631;49.168;9.848;2022-09-03T19:56:14;1.50;;;1.50;;
40501;SDS011;29631;49.168;9.848;2022-09-03T19:59:11;1.65;;;1.65;;
40501;SDS011;29631;49.168;9.848;2022-09-03T20:02:01;1.35;;;1.35;;
40501;SDS011;29631;49.168;9.848;2022-09-03T20:05:08;1.98;;;1.50;;
40501;SDS011;29631;49.168;9.848;2022-09-03T20:07:53;1.60;;;1.50;;
40501;SDS011;29631;49.168;9.848;2022-09-03T20:10:38;1.42;;;1.35;;
40501;SDS011;29631;49.168;9.848;2022-09-03T20:13:11;1.88;;;1.80;;
40501;SDS011;29631;49.168;9.848;2022-09-03T20:18:24;2.20;;;2.10;;
40501;SDS011;29631;49.168;9.848;2022-09-03T20:21:22;3.33;;;2.38;;
40501;SDS011;29631;49.168;9.848;2022-09-03T20:27:03;3.30;;;3.10;;
40501;SDS011;29631;49.168;9.848;2022-09-03T20:35:51;2.25;;;2.15;;
40501;SDS011;29631;49.168;9.848;2022-09-03T20:44:27;2.40;;;2.30;;
40501;SDS011;29631;49.168;9.848;2022-09-03T20:49:56;3.25;;;3.05;;
40501;SDS011;29631;49.168;9.848;2022-09-03T20:55:27;2.42;;;2.33;;
40501;SDS011;29631;49.168;9.848;2022-09-03T21:01:04;2.88;;;2.67;;
40501;SDS011;29631;49.168;9.848;2022-09-03T21:06:52;2.78;;;2.58;;
40501;SDS011;29631;49.168;9.848;2022-09-03T21:09:37;2.50;;;2.30;;
40501;SDS011;29631;49.168;9.848;2022-09-03T21:12:31;2.47;;;2.38;;
40501;SDS011;29631;49.168;9.848;2022-09-03T21:18:55;2.10;;;2.00;;
40501;SDS011;29631;49.168;9.848;2022-09-03T21:24:14;2.10;;;2.00;;
40501;SDS011;29631;49.168;9.848;2022-09-03T21:26:50;2.00;;;1.90;;
40501;SDS011;29631;49.168;9.848;2022-09-03T21:29:33;1.70;;;1.70;;
40501;SDS011;29631;49.168;9.848;2022-09-03T21:32:13;1.63;;;1.63;;
40501;SDS011;29631;49.168;9.848;2022-09-03T21:38:33;1.90;;;1.80;;
40501;SDS011;29631;49.168;9.848;2022-09-03T21:44:07;1.80;;;1.70;;
40501;SDS011;29631;49.168;9.848;2022-09-03T21:46:48;1.65;;;1.65;;
40501;SDS011;29631;49.168;9.848;2022-09-03T21:49:51;1.52;;;1.50;;
40501;SDS011;29631;49.168;9.848;2022-09-03T21:54:54;1.70;;;1.70;;
40501;SDS011;29631;49.168;9.848;2022-09-03T21:57:40;1.48;;;1.48;;
40501;SDS011;29631;49.168;9.848;2022-09-03T22:00:58;1.48;;;1.48;;